sensor_id;sensor_type;location;lat;lon;timestamp;P1;durP1;ratioP1;P2;durP2;ratioP2
60844;SDS011;47984;51.250;6.712;2022-07-23T00:00:27;3.33;;;2.53;;
60844;SDS011;47984;51.250;6.712;2022-07-23T00:02:59;6.28;;;2.75;;
60844;SDS011;47984;51.250;6.712;2022-07-23T00:05:26;3.25;;;2.80;;
60844;SDS011;47984;51.250;6.712;2022-07-23T00:07:53;3.40;;;3.10;;
60844;SDS011;47984;51.250;6.712;2022-07-23T00:10:20;4.03;;;3.60;;
60844;SDS011;47984;51.250;6.712;2022-07-23T00:12:47;5.63;;;3.47;;
60844;SDS011;47984;51.250;6.712;2022-07-23T00:15:17;4.60;;;3.30;;
60844;SDS011;47984;51.250;6.712;2022-07-23T00:17:45;5.40;;;3.80;;
60844;SDS011;47984;51.250;6.712;2022-07-23T00:20:12;5.68;;;3.90;;
60844;SDS011;47984;51.250;6.712;2022-07-23T00:22:47;6.13;;;4.45;;
60844;SDS011;47984;51.250;6.712;2022-07-23T00:25:19;4.32;;;3.58;;
60844;SDS011;47984;51.250;6.712;2022-07-23T00:27:55;4.70;;;4.30;;
60844;SDS011;47984;51.250;6.712;2022-07-23T00:30:24;6.22;;;4.68;;
60844;SDS011;47984;51.250;6.712;2022-07-23T00:32:53;6.78;;;5.40;;
60844;SDS011;47984;51.250;6.712;2022-07-23T00:35:24;5.57;;;4.80;;
60844;SDS011;47984;51.250;6.712;2022-07-23T00:37:56;4.60;;;4.07;;
60844;SDS011;47984;51.250;6.712;2022-07-23T00:40:24;5.53;;;4.60;;
60844;SDS011;47984;51.250;6.712;2022-07-23T00:42:52;9.68;;;4.93;;
60844;SDS011;47984;51.250;6.712;2022-07-23T00:45:20;4.93;;;4.43;;
60844;SDS011;47984;51.250;6.712;2022-07-23T00:47:47;6.60;;;5.13;;
60844;SDS011;47984;51.250;6.712;2022-07-23T00:50:15;6.93;;;4.80;;
60844;SDS011;47984;51.250;6.712;2022-07-23T00:52:42;6.30;;;4.93;;
60844;SDS011;47984;51.250;6.712;2022-07-23T00:55:10;8.40;;;4.97;;
60844;SDS011;47984;51.250;6.712;2022-07-23T00:57:38;6.07;;;5.13;;
60844;SDS011;47984;51.250;6.712;2022-07-23T01:00:08;7.13;;;5.15;;
60844;SDS011;47984;51.250;6.712;2022-07-23T01:02:38;6.43;;;5.47;;
60844;SDS011;47984;51.250;6.712;2022-07-23T01:05:06;6.35;;;5.70;;
60844;SDS011;47984;51.250;6.712;2022-07-23T01:07:34;7.43;;;5.68;;
60844;SDS011;47984;51.250;6.712;2022-07-23T01:10:03;6.97;;;5.82;;
60844;SDS011;47984;51.250;6.712;2022-07-23T01:12:52;6.07;;;5.13;;
60844;SDS011;47984;51.250;6.712;2022-07-23T01:15:19;6.20;;;5.55;;
60844;SDS011;47984;51.250;6.712;2022-07-23T01:17:47;7.57;;;5.38;;
60844;SDS011;47984;51.250;6.712;2022-07-23T01:20:15;6.50;;;5.47;;
60844;SDS011;47984;51.250;6.712;2022-07-23T01:22:43;7.30;;;5.05;;
60844;SDS011;47984;51.250;6.712;2022-07-23T01:25:11;6.40;;;5.35;;
60844;SDS011;47984;51.250;6.712;2022-07-23T01:27:38;6.65;;;5.70;;
60844;SDS011;47984;51.250;6.712;2022-07-23T01:30:06;7.18;;;5.43;;
60844;SDS011;47984;51.250;6.712;2022-07-23T01:32:34;5.63;;;4.97;;
60844;SDS011;47984;51.250;6.712;2022-07-23T01:35:01;5.72;;;4.75;;
60844;SDS011;47984;51.250;6.712;2022-07-23T01:37:28;6.13;;;4.80;;
60844;SDS011;47984;51.250;6.712;2022-07-23T01:39:55;5.22;;;4.20;;
60844;SDS011;47984;51.250;6.712;2022-07-23T01:42:22;5.07;;;4.57;;
60844;SDS011;47984;51.250;6.712;2022-07-23T01:44:51;4.68;;;4.18;;
60844;SDS011;47984;51.250;6.712;2022-07-23T01:47:18;4.68;;;4.22;;
60844;SDS011;47984;51.250;6.712;2022-07-23T01:49:45;4.45;;;3.92;;
60844;SDS011;47984;51.250;6.712;2022-07-23T01:52:12;5.45;;;4.38;;
60844;SDS011;47984;51.250;6.712;2022-07-23T01:54:40;4.75;;;3.78;;
60844;SDS011;47984;51.250;6.712;2022-07-23T01:57:07;7.03;;;4.35;;
60844;SDS011;47984;51.250;6.712;2022-07-23T01:59:35;6.57;;;3.92;;
60844;SDS011;47984;51.250;6.712;2022-07-23T02:02:03;4.32;;;3.90;;
60844;SDS011;47984;51.250;6.712;2022-07-23T02:04:31;6.47;;;4.07;;
60844;SDS011;47984;51.250;6.712;2022-07-23T02:07:03;4.50;;;3.78;;
60844;SDS011;47984;51.250;6.712;2022-07-23T02:09:31;3.58;;;3.20;;
60844;SDS011;47984;51.250;6.712;2022-07-23T02:11:58;3.63;;;3.30;;
60844;SDS011;47984;51.250;6.712;2022-07-23T02:14:26;3.55;;;3.25;;
60844;SDS011;47984;51.250;6.712;2022-07-23T02:16:53;4.55;;;3.35;;
60844;SDS011;47984;51.250;6.712;2022-07-23T02:19:21;3.97;;;3.58;;
60844;SDS011;47984;51.250;6.712;2022-07-23T02:21:48;4.45;;;3.97;;
60844;SDS011;47984;51.250;6.712;2022-07-23T02:24:15;5.70;;;3.42;;
60844;SDS011;47984;51.250;6.712;2022-07-23T02:26:43;4.28;;;3.58;;
60844;SDS011;47984;51.250;6.712;2022-07-23T02:29:10;4.05;;;3.65;;
60844;SDS011;47984;51.250;6.712;2022-07-23T02:31:37;4.50;;;3.95;;
60844;SDS011;47984;51.250;6.712;2022-07-23T02:34:04;4.47;;;3.72;;
60844;SDS011;47984;51.250;6.712;2022-07-23T02:36:33;5.40;;;4.07;;
60844;SDS011;47984;51.250;6.712;2022-07-23T02:39:00;5.55;;;4.38;;
60844;SDS011;47984;51.250;6.712;2022-07-23T02:41:27;5.00;;;4.32;;
60844;SDS011;47984;51.250;6.712;2022-07-23T02:43:55;5.32;;;4.25;;
60844;SDS011;47984;51.250;6.712;2022-07-23T02:46:22;4.07;;;3.60;;
60844;SDS011;47984;51.250;6.712;2022-07-23T02:48:49;5.63;;;4.30;;
60844;SDS011;47984;51.250;6.712;2022-07-23T02:51:16;5.07;;;4.43;;
60844;SDS011;47984;51.250;6.712;2022-07-23T02:53:43;8.45;;;4.72;;
60844;SDS011;47984;51.250;6.712;2022-07-23T02:56:10;5.13;;;4.63;;
60844;SDS011;47984;51.250;6.712;2022-07-23T02:58:37;5.90;;;4.45;;
60844;SDS011;47984;51.250;6.712;2022-07-23T03:01:04;6.32;;;4.63;;
60844;SDS011;47984;51.250;6.712;2022-07-23T03:03:31;6.25;;;4.75;;
60844;SDS011;47984;51.250;6.712;2022-07-23T03:05:59;8.82;;;4.90;;
60844;SDS011;47984;51.250;6.712;2022-07-23T03:08:26;5.85;;;3.97;;
60844;SDS011;47984;51.250;6.712;2022-07-23T03:10:53;5.47;;;4.75;;
60844;SDS011;47984;51.250;6.712;2022-07-23T03:13:20;6.55;;;4.93;;
60844;SDS011;47984;51.250;6.712;2022-07-23T03:15:48;7.25;;;4.97;;
60844;SDS011;47984;51.250;6.712;2022-07-23T03:18:15;6.57;;;4.88;;
60844;SDS011;47984;51.250;6.712;2022-07-23T03:20:42;5.22;;;4.43;;
60844;SDS011;47984;51.250;6.712;2022-07-23T03:23:09;5.82;;;4.72;;
60844;SDS011;47984;51.250;6.712;2022-07-23T03:25:37;7.80;;;5.47;;
60844;SDS011;47984;51.250;6.712;2022-07-23T03:28:04;4.78;;;3.95;;
60844;SDS011;47984;51.250;6.712;2022-07-23T03:30:31;5.78;;;5.07;;
60844;SDS011;47984;51.250;6.712;2022-07-23T03:32:58;6.57;;;4.28;;
60844;SDS011;47984;51.250;6.712;2022-07-23T03:35:25;5.65;;;4.32;;
60844;SDS011;47984;51.250;6.712;2022-07-23T03:37:53;5.15;;;4.15;;
60844;SDS011;47984;51.250;6.712;2022-07-23T03:40:20;5.65;;;5.05;;
60844;SDS011;47984;51.250;6.712;2022-07-23T03:42:47;7.40;;;4.47;;
60844;SDS011;47984;51.250;6.712;2022-07-23T03:45:15;5.80;;;4.13;;
60844;SDS011;47984;51.250;6.712;2022-07-23T03:47:42;7.93;;;5.05;;
60844;SDS011;47984;51.250;6.712;2022-07-23T03:50:10;6.20;;;4.28;;
60844;SDS011;47984;51.250;6.712;2022-07-23T03:52:38;5.57;;;4.78;;
60844;SDS011;47984;51.250;6.712;2022-07-23T03:55:05;6.93;;;5.18;;
60844;SDS011;47984;51.250;6.712;2022-07-23T03:57:33;7.03;;;4.75;;
60844;SDS011;47984;51.250;6.712;2022-07-23T04:00:00;10.07;;;4.80;;
60844;SDS011;47984;51.250;6.712;2022-07-23T04:02:27;7.13;;;5.22;;
60844;SDS011;47984;51.250;6.712;2022-07-23T04:04:54;9.50;;;4.97;;
60844;SDS011;47984;51.250;6.712;2022-07-23T04:07:21;6.72;;;4.97;;
60844;SDS011;47984;51.250;6.712;2022-07-23T04:09:49;8.38;;;5.60;;
60844;SDS011;47984;51.250;6.712;2022-07-23T04:12:16;5.82;;;4.88;;
60844;SDS011;47984;51.250;6.712;2022-07-23T04:14:43;7.60;;;5.50;;
60844;SDS011;47984;51.250;6.712;2022-07-23T04:17:11;4.75;;;4.28;;
60844;SDS011;47984;51.250;6.712;2022-07-23T04:19:42;5.43;;;4.55;;
60844;SDS011;47984;51.250;6.712;2022-07-23T04:22:10;5.68;;;4.32;;
60844;SDS011;47984;51.250;6.712;2022-07-23T04:24:38;7.68;;;4.57;;
60844;SDS011;47984;51.250;6.712;2022-07-23T04:27:05;5.63;;;5.00;;
60844;SDS011;47984;51.250;6.712;2022-07-23T04:29:32;4.95;;;4.47;;
60844;SDS011;47984;51.250;6.712;2022-07-23T04:32:00;11.02;;;4.60;;
60844;SDS011;47984;51.250;6.712;2022-07-23T04:34:28;5.45;;;4.78;;
60844;SDS011;47984;51.250;6.712;2022-07-23T04:36:55;8.35;;;5.30;;
60844;SDS011;47984;51.250;6.712;2022-07-23T04:39:22;7.32;;;4.68;;
60844;SDS011;47984;51.250;6.712;2022-07-23T04:41:49;8.07;;;4.53;;
60844;SDS011;47984;51.250;6.712;2022-07-23T04:44:16;6.75;;;4.68;;
60844;SDS011;47984;51.250;6.712;2022-07-23T04:46:43;6.03;;;4.40;;
60844;SDS011;47984;51.250;6.712;2022-07-23T04:49:12;4.75;;;4.18;;
60844;SDS011;47984;51.250;6.712;2022-07-23T04:51:39;11.65;;;4.90;;
60844;SDS011;47984;51.250;6.712;2022-07-23T04:54:07;5.35;;;4.35;;
60844;SDS011;47984;51.250;6.712;2022-07-23T04:56:34;11.68;;;5.10;;
60844;SDS011;47984;51.250;6.712;2022-07-23T04:59:01;5.18;;;4.68;;
60844;SDS011;47984;51.250;6.712;2022-07-23T05:01:28;5.30;;;4.80;;
60844;SDS011;47984;51.250;6.712;2022-07-23T05:03:56;5.93;;;4.47;;
60844;SDS011;47984;51.250;6.712;2022-07-23T05:06:23;6.80;;;4.47;;
60844;SDS011;47984;51.250;6.712;2022-07-23T05:08:50;5.78;;;5.00;;
60844;SDS011;47984;51.250;6.712;2022-07-23T05:11:17;8.82;;;5.00;;
60844;SDS011;47984;51.250;6.712;2022-07-23T05:13:50;5.72;;;4.47;;
60844;SDS011;47984;51.250;6.712;2022-07-23T05:16:17;5.47;;;4.68;;
60844;SDS011;47984;51.250;6.712;2022-07-23T05:18:45;5.53;;;4.93;;
60844;SDS011;47984;51.250;6.712;2022-07-23T05:21:12;5.85;;;4.75;;
60844;SDS011;47984;51.250;6.712;2022-07-23T05:23:39;6.35;;;4.57;;
60844;SDS011;47984;51.250;6.712;2022-07-23T05:26:06;5.68;;;4.35;;
60844;SDS011;47984;51.250;6.712;2022-07-23T05:28:33;7.70;;;4.57;;
60844;SDS011;47984;51.250;6.712;2022-07-23T05:31:00;5.28;;;4.60;;
60844;SDS011;47984;51.250;6.712;2022-07-23T05:33:27;5.43;;;4.88;;
60844;SDS011;47984;51.250;6.712;2022-07-23T05:35:59;9.07;;;4.88;;
60844;SDS011;47984;51.250;6.712;2022-07-23T05:38:30;6.22;;;5.60;;
60844;SDS011;47984;51.250;6.712;2022-07-23T05:40:59;5.97;;;5.18;;
60844;SDS011;47984;51.250;6.712;2022-07-23T05:43:27;5.93;;;5.00;;
60844;SDS011;47984;51.250;6.712;2022-07-23T05:45:55;4.43;;;4.03;;
60844;SDS011;47984;51.250;6.712;2022-07-23T05:48:22;5.97;;;4.75;;
60844;SDS011;47984;51.250;6.712;2022-07-23T05:50:49;8.43;;;5.22;;
60844;SDS011;47984;51.250;6.712;2022-07-23T05:53:16;7.03;;;5.07;;
60844;SDS011;47984;51.250;6.712;2022-07-23T05:55:44;5.75;;;4.95;;
60844;SDS011;47984;51.250;6.712;2022-07-23T05:58:11;6.57;;;5.82;;
60844;SDS011;47984;51.250;6.712;2022-07-23T06:00:38;7.10;;;5.47;;
60844;SDS011;47984;51.250;6.712;2022-07-23T06:03:05;8.32;;;6.32;;
60844;SDS011;47984;51.250;6.712;2022-07-23T06:05:32;6.35;;;5.72;;
60844;SDS011;47984;51.250;6.712;2022-07-23T06:07:59;10.50;;;6.43;;
60844;SDS011;47984;51.250;6.712;2022-07-23T06:10:26;6.28;;;5.40;;
60844;SDS011;47984;51.250;6.712;2022-07-23T06:12:54;7.55;;;6.10;;
60844;SDS011;47984;51.250;6.712;2022-07-23T06:15:27;6.63;;;5.85;;
60844;SDS011;47984;51.250;6.712;2022-07-23T06:17:55;8.43;;;6.72;;
60844;SDS011;47984;51.250;6.712;2022-07-23T06:20:22;6.85;;;5.00;;
60844;SDS011;47984;51.250;6.712;2022-07-23T06:22:49;8.48;;;5.55;;
60844;SDS011;47984;51.250;6.712;2022-07-23T06:25:17;9.52;;;5.97;;
60844;SDS011;47984;51.250;6.712;2022-07-23T06:27:45;7.18;;;5.15;;
60844;SDS011;47984;51.250;6.712;2022-07-23T06:30:13;6.88;;;5.78;;
60844;SDS011;47984;51.250;6.712;2022-07-23T06:32:44;8.35;;;5.95;;
60844;SDS011;47984;51.250;6.712;2022-07-23T06:35:15;7.03;;;6.32;;
60844;SDS011;47984;51.250;6.712;2022-07-23T06:37:44;7.85;;;5.90;;
60844;SDS011;47984;51.250;6.712;2022-07-23T06:40:13;5.63;;;5.07;;
60844;SDS011;47984;51.250;6.712;2022-07-23T06:42:40;10.30;;;6.00;;
60844;SDS011;47984;51.250;6.712;2022-07-23T06:45:08;8.25;;;6.72;;
60844;SDS011;47984;51.250;6.712;2022-07-23T06:47:35;8.38;;;6.10;;
60844;SDS011;47984;51.250;6.712;2022-07-23T06:50:02;7.15;;;6.45;;
60844;SDS011;47984;51.250;6.712;2022-07-23T06:52:30;8.50;;;7.05;;
60844;SDS011;47984;51.250;6.712;2022-07-23T06:54:57;8.07;;;6.93;;
60844;SDS011;47984;51.250;6.712;2022-07-23T06:57:24;9.07;;;7.43;;
60844;SDS011;47984;51.250;6.712;2022-07-23T06:59:52;9.60;;;6.85;;
60844;SDS011;47984;51.250;6.712;2022-07-23T07:02:21;10.68;;;7.55;;
60844;SDS011;47984;51.250;6.712;2022-07-23T07:04:49;9.48;;;7.93;;
60844;SDS011;47984;51.250;6.712;2022-07-23T07:07:16;9.18;;;8.05;;
60844;SDS011;47984;51.250;6.712;2022-07-23T07:09:43;12.65;;;8.52;;
60844;SDS011;47984;51.250;6.712;2022-07-23T07:12:13;13.60;;;9.05;;
60844;SDS011;47984;51.250;6.712;2022-07-23T07:14:40;11.30;;;8.43;;
60844;SDS011;47984;51.250;6.712;2022-07-23T07:17:08;11.98;;;9.82;;
60844;SDS011;47984;51.250;6.712;2022-07-23T07:19:37;13.27;;;9.52;;
60844;SDS011;47984;51.250;6.712;2022-07-23T07:22:04;12.32;;;8.93;;
60844;SDS011;47984;51.250;6.712;2022-07-23T07:24:31;14.55;;;8.65;;
60844;SDS011;47984;51.250;6.712;2022-07-23T07:27:03;13.50;;;9.18;;
60844;SDS011;47984;51.250;6.712;2022-07-23T07:29:31;12.38;;;8.73;;
60844;SDS011;47984;51.250;6.712;2022-07-23T07:31:58;12.93;;;9.07;;
60844;SDS011;47984;51.250;6.712;2022-07-23T07:34:25;10.68;;;8.02;;
60844;SDS011;47984;51.250;6.712;2022-07-23T07:36:52;12.75;;;8.70;;
60844;SDS011;47984;51.250;6.712;2022-07-23T07:39:19;12.38;;;8.75;;
60844;SDS011;47984;51.250;6.712;2022-07-23T07:41:46;13.10;;;7.75;;
60844;SDS011;47984;51.250;6.712;2022-07-23T07:44:13;10.13;;;8.10;;
60844;SDS011;47984;51.250;6.712;2022-07-23T07:46:41;15.02;;;9.82;;
60844;SDS011;47984;51.250;6.712;2022-07-23T07:49:08;11.32;;;9.05;;
60844;SDS011;47984;51.250;6.712;2022-07-23T07:51:41;10.75;;;8.20;;
60844;SDS011;47984;51.250;6.712;2022-07-23T07:54:11;9.68;;;7.90;;
60844;SDS011;47984;51.250;6.712;2022-07-23T07:56:39;12.23;;;8.60;;
60844;SDS011;47984;51.250;6.712;2022-07-23T07:59:07;9.80;;;8.52;;
60844;SDS011;47984;51.250;6.712;2022-07-23T08:01:36;9.70;;;7.65;;
60844;SDS011;47984;51.250;6.712;2022-07-23T08:04:03;11.73;;;9.23;;
60844;SDS011;47984;51.250;6.712;2022-07-23T08:06:31;10.65;;;9.23;;
60844;SDS011;47984;51.250;6.712;2022-07-23T08:08:58;13.75;;;8.50;;
60844;SDS011;47984;51.250;6.712;2022-07-23T08:11:25;10.85;;;9.48;;
60844;SDS011;47984;51.250;6.712;2022-07-23T08:13:52;7.13;;;6.45;;
60844;SDS011;47984;51.250;6.712;2022-07-23T08:16:20;8.00;;;6.40;;
60844;SDS011;47984;51.250;6.712;2022-07-23T08:18:47;8.77;;;6.85;;
60844;SDS011;47984;51.250;6.712;2022-07-23T08:21:14;7.40;;;6.57;;
60844;SDS011;47984;51.250;6.712;2022-07-23T08:23:42;6.07;;;5.45;;
60844;SDS011;47984;51.250;6.712;2022-07-23T08:26:09;7.90;;;5.20;;
60844;SDS011;47984;51.250;6.712;2022-07-23T08:28:36;6.00;;;5.15;;
60844;SDS011;47984;51.250;6.712;2022-07-23T08:31:04;7.20;;;6.47;;
60844;SDS011;47984;51.250;6.712;2022-07-23T08:33:32;8.55;;;6.07;;
60844;SDS011;47984;51.250;6.712;2022-07-23T08:36:01;7.30;;;5.50;;
60844;SDS011;47984;51.250;6.712;2022-07-23T08:38:31;7.03;;;5.20;;
60844;SDS011;47984;51.250;6.712;2022-07-23T08:40:59;10.20;;;5.80;;
60844;SDS011;47984;51.250;6.712;2022-07-23T08:43:27;5.97;;;5.38;;
60844;SDS011;47984;51.250;6.712;2022-07-23T08:45:58;5.32;;;4.40;;
60844;SDS011;47984;51.250;6.712;2022-07-23T08:48:34;6.28;;;4.57;;
60844;SDS011;47984;51.250;6.712;2022-07-23T08:51:05;6.25;;;4.95;;
60844;SDS011;47984;51.250;6.712;2022-07-23T08:53:33;3.88;;;3.42;;
60844;SDS011;47984;51.250;6.712;2022-07-23T08:56:05;4.65;;;4.15;;
60844;SDS011;47984;51.250;6.712;2022-07-23T08:58:35;4.20;;;3.80;;
60844;SDS011;47984;51.250;6.712;2022-07-23T09:01:02;6.40;;;3.88;;
60844;SDS011;47984;51.250;6.712;2022-07-23T09:03:31;4.70;;;4.30;;
60844;SDS011;47984;51.250;6.712;2022-07-23T09:06:01;4.88;;;4.38;;
60844;SDS011;47984;51.250;6.712;2022-07-23T09:08:39;6.70;;;4.95;;
60844;SDS011;47984;51.250;6.712;2022-07-23T09:11:11;3.97;;;3.58;;
60844;SDS011;47984;51.250;6.712;2022-07-23T09:16:28;5.68;;;2.92;;
60844;SDS011;47984;51.250;6.712;2022-07-23T09:18:59;3.75;;;3.25;;
60844;SDS011;47984;51.250;6.712;2022-07-23T09:21:34;4.20;;;3.40;;
60844;SDS011;47984;51.250;6.712;2022-07-23T09:24:10;4.72;;;3.40;;
60844;SDS011;47984;51.250;6.712;2022-07-23T09:29:20;3.60;;;3.30;;
60844;SDS011;47984;51.250;6.712;2022-07-23T09:34:32;3.55;;;3.25;;
60844;SDS011;47984;51.250;6.712;2022-07-23T09:37:14;3.75;;;3.38;;
60844;SDS011;47984;51.250;6.712;2022-07-23T09:39:44;4.35;;;3.67;;
60844;SDS011;47984;51.250;6.712;2022-07-23T09:42:24;4.57;;;3.58;;
60844;SDS011;47984;51.250;6.712;2022-07-23T09:44:56;4.40;;;3.35;;
60844;SDS011;47984;51.250;6.712;2022-07-23T09:50:07;5.90;;;3.67;;
60844;SDS011;47984;51.250;6.712;2022-07-23T09:52:42;4.78;;;4.00;;
60844;SDS011;47984;51.250;6.712;2022-07-23T09:55:18;4.20;;;3.78;;
60844;SDS011;47984;51.250;6.712;2022-07-23T09:57:45;3.65;;;3.30;;
60844;SDS011;47984;51.250;6.712;2022-07-23T10:00:16;4.63;;;3.65;;
60844;SDS011;47984;51.250;6.712;2022-07-23T10:02:46;3.90;;;2.75;;
60844;SDS011;47984;51.250;6.712;2022-07-23T10:05:15;2.53;;;2.33;;
60844;SDS011;47984;51.250;6.712;2022-07-23T10:07:43;2.70;;;2.38;;
60844;SDS011;47984;51.250;6.712;2022-07-23T10:10:18;3.38;;;3.10;;
60844;SDS011;47984;51.250;6.712;2022-07-23T10:12:48;4.60;;;2.45;;
60844;SDS011;47984;51.250;6.712;2022-07-23T10:15:34;3.05;;;2.28;;
60844;SDS011;47984;51.250;6.712;2022-07-23T10:18:02;4.00;;;2.67;;
60844;SDS011;47984;51.250;6.712;2022-07-23T10:20:31;4.38;;;3.03;;
60844;SDS011;47984;51.250;6.712;2022-07-23T10:23:13;3.20;;;2.50;;
60844;SDS011;47984;51.250;6.712;2022-07-23T10:26:13;4.38;;;2.25;;
60844;SDS011;47984;51.250;6.712;2022-07-23T10:32:12;4.15;;;2.50;;
60844;SDS011;47984;51.250;6.712;2022-07-23T10:38:12;2.78;;;2.30;;
60844;SDS011;47984;51.250;6.712;2022-07-23T10:40:56;2.70;;;2.10;;
60844;SDS011;47984;51.250;6.712;2022-07-23T10:43:26;3.97;;;2.28;;
60844;SDS011;47984;51.250;6.712;2022-07-23T10:45:56;4.60;;;2.97;;
60844;SDS011;47984;51.250;6.712;2022-07-23T10:57:51;3.60;;;2.90;;
60844;SDS011;47984;51.250;6.712;2022-07-23T11:00:22;4.03;;;2.30;;
60844;SDS011;47984;51.250;6.712;2022-07-23T11:02:56;3.03;;;2.72;;
60844;SDS011;47984;51.250;6.712;2022-07-23T11:05:38;2.10;;;1.90;;
60844;SDS011;47984;51.250;6.712;2022-07-23T11:08:13;3.53;;;2.50;;
60844;SDS011;47984;51.250;6.712;2022-07-23T11:10:53;2.88;;;2.58;;
60844;SDS011;47984;51.250;6.712;2022-07-23T11:13:36;3.42;;;3.03;;
60844;SDS011;47984;51.250;6.712;2022-07-23T11:16:08;3.63;;;2.83;;
60844;SDS011;47984;51.250;6.712;2022-07-23T11:24:07;2.95;;;2.08;;
60844;SDS011;47984;51.250;6.712;2022-07-23T11:31:58;2.58;;;2.38;;
60844;SDS011;47984;51.250;6.712;2022-07-23T11:34:35;3.67;;;2.38;;
60844;SDS011;47984;51.250;6.712;2022-07-23T11:37:07;3.95;;;2.15;;
60844;SDS011;47984;51.250;6.712;2022-07-23T11:39:38;1.80;;;1.70;;
60844;SDS011;47984;51.250;6.712;2022-07-23T11:42:06;2.15;;;1.85;;
60844;SDS011;47984;51.250;6.712;2022-07-23T11:44:35;3.15;;;1.95;;
60844;SDS011;47984;51.250;6.712;2022-07-23T11:47:06;2.20;;;2.00;;
60844;SDS011;47984;51.250;6.712;2022-07-23T11:49:37;2.78;;;2.47;;
60844;SDS011;47984;51.250;6.712;2022-07-23T11:52:14;2.83;;;2.13;;
60844;SDS011;47984;51.250;6.712;2022-07-23T11:54:49;2.33;;;1.90;;
60844;SDS011;47984;51.250;6.712;2022-07-23T11:57:29;2.30;;;2.08;;
60844;SDS011;47984;51.250;6.712;2022-07-23T12:00:04;3.20;;;2.55;;
60844;SDS011;47984;51.250;6.712;2022-07-23T12:02:48;3.45;;;2.40;;
60844;SDS011;47984;51.250;6.712;2022-07-23T12:05:18;3.25;;;2.60;;
60844;SDS011;47984;51.250;6.712;2022-07-23T12:07:51;3.28;;;2.22;;
60844;SDS011;47984;51.250;6.712;2022-07-23T12:12:51;4.70;;;1.65;;
60844;SDS011;47984;51.250;6.712;2022-07-23T12:15:36;2.35;;;2.10;;
60844;SDS011;47984;51.250;6.712;2022-07-23T12:18:11;2.40;;;2.00;;
60844;SDS011;47984;51.250;6.712;2022-07-23T12:20:43;2.72;;;2.05;;
60844;SDS011;47984;51.250;6.712;2022-07-23T12:23:14;2.00;;;1.50;;
60844;SDS011;47984;51.250;6.712;2022-07-23T12:25:46;1.77;;;1.67;;
60844;SDS011;47984;51.250;6.712;2022-07-23T12:30:50;4.18;;;2.80;;
60844;SDS011;47984;51.250;6.712;2022-07-23T12:33:21;1.75;;;1.40;;
60844;SDS011;47984;51.250;6.712;2022-07-23T12:35:54;1.20;;;1.10;;
60844;SDS011;47984;51.250;6.712;2022-07-23T12:38:26;1.95;;;1.10;;
60844;SDS011;47984;51.250;6.712;2022-07-23T12:40:58;1.17;;;1.10;;
60844;SDS011;47984;51.250;6.712;2022-07-23T12:43:29;1.50;;;1.40;;
60844;SDS011;47984;51.250;6.712;2022-07-23T12:48:34;1.90;;;1.35;;
60844;SDS011;47984;51.250;6.712;2022-07-23T12:51:07;1.30;;;1.20;;
60844;SDS011;47984;51.250;6.712;2022-07-23T12:53:45;1.30;;;1.20;;
60844;SDS011;47984;51.250;6.712;2022-07-23T12:56:21;1.10;;;0.98;;
60844;SDS011;47984;51.250;6.712;2022-07-23T13:01:35;2.00;;;1.08;;
60844;SDS011;47984;51.250;6.712;2022-07-23T13:04:23;1.38;;;1.27;;
60844;SDS011;47984;51.250;6.712;2022-07-23T13:06:53;1.65;;;1.48;;
60844;SDS011;47984;51.250;6.712;2022-07-23T13:09:31;1.65;;;1.48;;
60844;SDS011;47984;51.250;6.712;2022-07-23T13:12:07;1.48;;;1.00;;
60844;SDS011;47984;51.250;6.712;2022-07-23T13:14:37;1.30;;;1.20;;
60844;SDS011;47984;51.250;6.712;2022-07-23T13:17:05;1.00;;;1.00;;
60844;SDS011;47984;51.250;6.712;2022-07-23T13:19:33;1.30;;;1.20;;
60844;SDS011;47984;51.250;6.712;2022-07-23T13:22:00;1.42;;;1.33;;
60844;SDS011;47984;51.250;6.712;2022-07-23T13:24:35;1.00;;;1.00;;
60844;SDS011;47984;51.250;6.712;2022-07-23T13:27:05;1.95;;;1.30;;
60844;SDS011;47984;51.250;6.712;2022-07-23T13:29:41;2.25;;;1.58;;
60844;SDS011;47984;51.250;6.712;2022-07-23T13:32:11;1.30;;;1.20;;
60844;SDS011;47984;51.250;6.712;2022-07-23T13:34:39;2.03;;;1.50;;
60844;SDS011;47984;51.250;6.712;2022-07-23T13:37:07;1.15;;;1.10;;
60844;SDS011;47984;51.250;6.712;2022-07-23T13:39:35;2.67;;;1.75;;
60844;SDS011;47984;51.250;6.712;2022-07-23T13:42:05;2.05;;;1.40;;
60844;SDS011;47984;51.250;6.712;2022-07-23T13:44:33;1.33;;;1.23;;
60844;SDS011;47984;51.250;6.712;2022-07-23T13:47:21;2.45;;;1.30;;
60844;SDS011;47984;51.250;6.712;2022-07-23T13:49:50;1.40;;;1.30;;
60844;SDS011;47984;51.250;6.712;2022-07-23T13:52:17;1.58;;;1.48;;
60844;SDS011;47984;51.250;6.712;2022-07-23T13:54:45;1.52;;;1.42;;
60844;SDS011;47984;51.250;6.712;2022-07-23T13:57:12;1.88;;;1.30;;
60844;SDS011;47984;51.250;6.712;2022-07-23T13:59:39;1.73;;;1.42;;
60844;SDS011;47984;51.250;6.712;2022-07-23T14:02:06;1.48;;;1.38;;
60844;SDS011;47984;51.250;6.712;2022-07-23T14:04:46;1.40;;;1.30;;
60844;SDS011;47984;51.250;6.712;2022-07-23T14:07:14;2.20;;;1.48;;
60844;SDS011;47984;51.250;6.712;2022-07-23T14:09:42;1.50;;;1.40;;
60844;SDS011;47984;51.250;6.712;2022-07-23T14:12:10;3.28;;;1.73;;
60844;SDS011;47984;51.250;6.712;2022-07-23T14:14:37;1.50;;;1.40;;
60844;SDS011;47984;51.250;6.712;2022-07-23T14:17:05;1.65;;;1.33;;
60844;SDS011;47984;51.250;6.712;2022-07-23T14:19:36;2.08;;;1.38;;
60844;SDS011;47984;51.250;6.712;2022-07-23T14:22:08;1.65;;;1.30;;
60844;SDS011;47984;51.250;6.712;2022-07-23T14:24:35;1.40;;;1.30;;
60844;SDS011;47984;51.250;6.712;2022-07-23T14:27:03;1.40;;;1.30;;
60844;SDS011;47984;51.250;6.712;2022-07-23T14:29:31;2.67;;;1.50;;
60844;SDS011;47984;51.250;6.712;2022-07-23T14:32:00;2.45;;;1.75;;
60844;SDS011;47984;51.250;6.712;2022-07-23T14:34:28;1.85;;;1.55;;
60844;SDS011;47984;51.250;6.712;2022-07-23T14:36:56;1.48;;;1.38;;
60844;SDS011;47984;51.250;6.712;2022-07-23T14:39:26;2.10;;;1.42;;
60844;SDS011;47984;51.250;6.712;2022-07-23T14:41:53;1.65;;;1.42;;
60844;SDS011;47984;51.250;6.712;2022-07-23T14:44:20;1.90;;;1.80;;
60844;SDS011;47984;51.250;6.712;2022-07-23T14:46:48;1.60;;;1.50;;
60844;SDS011;47984;51.250;6.712;2022-07-23T14:49:16;1.52;;;1.42;;
60844;SDS011;47984;51.250;6.712;2022-07-23T14:51:43;1.40;;;1.30;;
60844;SDS011;47984;51.250;6.712;2022-07-23T14:54:11;1.20;;;1.10;;
60844;SDS011;47984;51.250;6.712;2022-07-23T14:56:40;1.40;;;1.30;;
60844;SDS011;47984;51.250;6.712;2022-07-23T14:59:12;1.65;;;1.40;;
60844;SDS011;47984;51.250;6.712;2022-07-23T15:01:40;1.55;;;1.38;;
60844;SDS011;47984;51.250;6.712;2022-07-23T15:04:07;2.15;;;1.63;;
60844;SDS011;47984;51.250;6.712;2022-07-23T15:06:55;1.58;;;1.38;;
60844;SDS011;47984;51.250;6.712;2022-07-23T15:09:22;1.23;;;1.23;;
60844;SDS011;47984;51.250;6.712;2022-07-23T15:11:49;1.50;;;1.40;;
60844;SDS011;47984;51.250;6.712;2022-07-23T15:14:16;1.40;;;1.30;;
60844;SDS011;47984;51.250;6.712;2022-07-23T15:16:54;2.13;;;1.60;;
60844;SDS011;47984;51.250;6.712;2022-07-23T15:19:22;1.63;;;1.52;;
60844;SDS011;47984;51.250;6.712;2022-07-23T15:21:49;2.67;;;1.75;;
60844;SDS011;47984;51.250;6.712;2022-07-23T15:24:16;1.70;;;1.60;;
60844;SDS011;47984;51.250;6.712;2022-07-23T15:26:44;2.00;;;1.60;;
60844;SDS011;47984;51.250;6.712;2022-07-23T15:29:12;1.50;;;1.30;;
60844;SDS011;47984;51.250;6.712;2022-07-23T15:31:39;3.22;;;1.52;;
60844;SDS011;47984;51.250;6.712;2022-07-23T15:34:06;1.73;;;1.50;;
60844;SDS011;47984;51.250;6.712;2022-07-23T15:36:33;1.58;;;1.48;;
60844;SDS011;47984;51.250;6.712;2022-07-23T15:39:01;1.85;;;1.60;;
60844;SDS011;47984;51.250;6.712;2022-07-23T15:41:30;1.77;;;1.30;;
60844;SDS011;47984;51.250;6.712;2022-07-23T15:43:59;2.92;;;1.80;;
60844;SDS011;47984;51.250;6.712;2022-07-23T15:46:46;2.08;;;1.50;;